Time;durP1;ratioP1;P1;durP2;ratioP2;P2;SDS_P1;SDS_P2;PMS_P1;PMS_P2;Temp;Humidity;BMP_temperature;BMP_pressure;BME280_temperature;BME280_humidity;BME280_pressure;Samples;Min_cycle;Max_cycle;Signal;HPM_P1;HPM_P2
2021/11/21 00:00:11;;;;;;;9.70;5.27;;;9.10;99.90;;;;;;4980119;28;20524;-77
2021/11/21 00:02:37;;;;;;;6.10;5.27;;;9.20;99.90;;;;;;4983341;28;20966;-76
2021/11/21 00:05:04;;;;;;;6.23;5.63;;;9.10;99.90;;;;;;4983122;28;20435;-76
2021/11/21 00:07:29;;;;;;;6.43;5.70;;;9.10;99.90;;;;;;4982064;28;21042;-76
2021/11/21 00:09:55;;;;;;;8.83;5.17;;;9.00;99.90;;;;;;4980615;28;20438;-76
2021/11/21 00:12:21;;;;;;;5.63;4.63;;;9.00;99.90;;;;;;4980077;28;20617;-77
2021/11/21 00:14:47;;;;;;;5.93;5.10;;;9.10;99.90;;;;;;4984874;28;20636;-76
2021/11/21 00:17:13;;;;;;;7.17;5.60;;;9.00;99.90;;;;;;4997867;28;20564;-76
2021/11/21 00:19:41;;;;;;;6.03;5.00;;;9.00;99.90;;;;;;4981765;28;20208;-75
2021/11/21 00:22:09;;;;;;;5.13;4.60;;;9.00;99.90;;;;;;4982675;28;20241;-76
2021/11/21 00:24:38;;;;;;;8.07;5.20;;;9.00;99.90;;;;;;4983709;28;20856;-80
2021/11/21 00:27:05;;;;;;;9.23;5.10;;;9.00;99.90;;;;;;4984327;28;20470;-76
2021/11/21 00:29:31;;;;;;;8.53;5.00;;;9.00;99.90;;;;;;4982601;28;20481;-76
2021/11/21 00:31:57;;;;;;;5.60;5.10;;;8.90;99.90;;;;;;4982257;28;20474;-76
2021/11/21 00:34:22;;;;;;;4.53;4.13;;;8.90;99.90;;;;;;4982068;28;20194;-73
2021/11/21 00:36:48;;;;;;;5.87;5.30;;;8.90;99.90;;;;;;4983797;28;20533;-75
2021/11/21 00:39:14;;;;;;;5.30;4.67;;;8.90;99.90;;;;;;4981361;28;20191;-75
2021/11/21 00:41:41;;;;;;;9.03;5.73;;;8.90;99.90;;;;;;4982200;28;20186;-75
2021/11/21 00:44:07;;;;;;;5.93;5.10;;;8.90;99.90;;;;;;4983358;28;20463;-76
2021/11/21 00:46:33;;;;;;;7.40;5.60;;;8.90;99.90;;;;;;4997427;28;20471;-76
2021/11/21 00:49:00;;;;;;;7.10;5.23;;;8.90;99.90;;;;;;4982535;28;20643;-76
2021/11/21 00:51:26;;;;;;;9.80;5.77;;;8.90;99.90;;;;;;4983766;28;20508;-77
2021/11/21 00:53:54;;;;;;;9.03;6.80;;;8.90;99.90;;;;;;4983866;28;20447;-76
2021/11/21 00:56:21;;;;;;;14.90;7.47;;;9.00;99.90;;;;;;4984403;28;20531;-76
2021/11/21 00:58:47;;;;;;;12.57;7.83;;;9.00;99.90;;;;;;4982283;28;20540;-76
2021/11/21 01:01:14;;;;;;;9.60;7.10;;;8.90;99.90;;;;;;4982136;28;20891;-76
2021/11/21 01:03:40;;;;;;;10.83;7.60;;;8.90;99.90;;;;;;4983439;28;20431;-76
2021/11/21 01:06:06;;;;;;;8.40;7.00;;;8.90;99.90;;;;;;4982671;28;20525;-76
2021/11/21 01:08:32;;;;;;;10.37;8.37;;;9.00;99.90;;;;;;4984000;28;20901;-76
2021/11/21 01:11:02;;;;;;;11.83;7.60;;;9.00;99.90;;;;;;4982448;28;20269;-80
2021/11/21 01:13:28;;;;;;;8.27;6.53;;;9.00;99.90;;;;;;4984579;28;20444;-80
2021/11/21 01:15:55;;;;;;;8.33;7.23;;;8.90;99.90;;;;;;4984026;28;20438;-82
2021/11/21 01:18:21;;;;;;;9.20;7.23;;;8.90;99.90;;;;;;4983608;28;20816;-82
2021/11/21 01:20:47;;;;;;;11.00;7.20;;;8.90;99.90;;;;;;4980331;28;20463;-82
2021/11/21 01:23:15;;;;;;;7.83;6.63;;;8.90;99.90;;;;;;4983665;28;20466;-85
2021/11/21 01:25:43;;;;;;;9.53;7.50;;;8.90;99.90;;;;;;4982559;28;20493;-76
2021/11/21 01:28:11;;;;;;;15.70;8.37;;;8.90;99.90;;;;;;4981772;28;20438;-76
2021/11/21 01:30:37;;;;;;;12.50;8.00;;;8.90;99.90;;;;;;4983016;28;20432;-78
2021/11/21 01:33:03;;;;;;;11.00;7.47;;;8.90;99.90;;;;;;4985595;28;20934;-77
2021/11/21 01:35:31;;;;;;;12.77;8.30;;;8.90;99.90;;;;;;4986646;28;20488;-75
2021/11/21 01:37:58;;;;;;;11.90;7.73;;;8.90;99.90;;;;;;4984672;28;20477;-76
2021/11/21 01:40:24;;;;;;;10.83;7.17;;;8.80;99.90;;;;;;5000625;28;20474;-77
2021/11/21 01:42:52;;;;;;;17.60;8.53;;;8.80;99.90;;;;;;4987012;28;20439;-75
2021/11/21 01:45:18;;;;;;;10.10;8.13;;;8.80;99.90;;;;;;4986222;28;20434;-71
2021/11/21 01:47:48;;;;;;;12.20;8.57;;;8.80;99.90;;;;;;4987016;28;20427;-71
2021/11/21 01:50:17;;;;;;;12.07;7.90;;;8.90;99.90;;;;;;4986363;28;20442;-73
2021/11/21 01:52:43;;;;;;;11.67;8.10;;;8.90;99.90;;;;;;4985778;28;20442;-86
2021/11/21 01:55:09;;;;;;;13.17;9.27;;;8.90;99.90;;;;;;4986727;28;20442;-86
2021/11/21 01:57:37;;;;;;;14.00;10.10;;;9.00;99.90;;;;;;4985640;28;20963;-82
2021/11/21 02:00:05;;;;;;;14.43;8.93;;;8.90;99.90;;;;;;4984632;28;20215;-85
2021/11/21 02:02:31;;;;;;;10.90;8.77;;;8.90;99.90;;;;;;4986727;28;20468;-85
2021/11/21 02:04:57;;;;;;;15.80;10.00;;;8.90;99.90;;;;;;5003793;28;20477;-86
2021/11/21 02:07:23;;;;;;;17.30;11.87;;;9.00;99.90;;;;;;4986405;28;20466;-87
2021/11/21 02:09:49;;;;;;;16.03;10.90;;;8.90;99.90;;;;;;5001557;28;20192;-86
2021/11/21 02:12:15;;;;;;;15.40;10.37;;;8.90;99.90;;;;;;5002313;28;20675;-78
2021/11/21 02:14:41;;;;;;;20.40;11.90;;;8.90;99.90;;;;;;4987842;28;20183;-79
2021/11/21 02:17:07;;;;;;;18.00;11.20;;;8.90;99.90;;;;;;4985529;28;20446;-76
2021/11/21 02:19:33;;;;;;;17.80;12.70;;;8.90;99.90;;;;;;4985912;28;20490;-76
2021/11/21 02:21:59;;;;;;;22.27;12.70;;;8.90;99.90;;;;;;4987241;28;20494;-76
2021/11/21 02:24:24;;;;;;;16.23;11.73;;;8.90;99.90;;;;;;4984569;28;20520;-76
2021/11/21 02:26:50;;;;;;;18.03;13.77;;;8.90;99.90;;;;;;4985583;28;20206;-76
2021/11/21 02:29:16;;;;;;;16.67;12.00;;;9.00;99.90;;;;;;4986135;28;20508;-76
2021/11/21 02:31:42;;;;;;;21.57;12.07;;;9.00;99.90;;;;;;4986916;28;20179;-77
2021/11/21 02:34:08;;;;;;;19.57;12.93;;;9.00;99.90;;;;;;4985396;28;20599;-76
2021/11/21 02:36:34;;;;;;;16.73;12.30;;;9.00;99.90;;;;;;4984782;28;20430;-76
2021/11/21 02:39:00;;;;;;;20.00;12.17;;;8.90;99.90;;;;;;4985405;28;20247;-76
2021/11/21 02:41:27;;;;;;;16.57;11.37;;;9.00;99.90;;;;;;4983524;28;20471;-76
2021/11/21 02:43:54;;;;;;;18.87;11.90;;;9.00;99.90;;;;;;4984165;28;20239;-76
2021/11/21 02:46:20;;;;;;;20.47;11.77;;;8.90;99.90;;;;;;4985786;28;20538;-72
2021/11/21 02:48:46;;;;;;;15.63;10.37;;;8.90;99.90;;;;;;4985304;28;20450;-76
2021/11/21 02:51:14;;;;;;;15.90;11.10;;;8.90;99.90;;;;;;4985287;28;20438;-83
2021/11/21 02:53:42;;;;;;;18.27;10.30;;;8.90;99.90;;;;;;4985608;28;20179;-84
2021/11/21 02:56:10;;;;;;;16.80;11.47;;;8.90;99.90;;;;;;4986428;28;20451;-84
2021/11/21 02:58:37;;;;;;;13.87;9.77;;;8.90;99.90;;;;;;4983035;28;20449;-79
2021/11/21 03:01:25;;;;;;;20.60;12.10;;;8.90;99.90;;;;;;4985585;28;20458;-73
2021/11/21 03:03:52;;;;;;;17.53;11.00;;;8.90;99.90;;;;;;4984747;28;20470;-72
2021/11/21 03:06:17;;;;;;;15.80;10.70;;;8.90;99.90;;;;;;4985864;28;20431;-71
2021/11/21 03:08:44;;;;;;;17.13;11.23;;;8.90;99.90;;;;;;5000446;28;20470;-71
2021/11/21 03:11:32;;;;;;;21.50;13.37;;;8.90;99.90;;;;;;4985360;28;20457;-86
2021/11/21 03:14:01;;;;;;;16.70;11.57;;;8.90;99.90;;;;;;4985301;28;20545;-77
2021/11/21 03:16:27;;;;;;;15.20;10.30;;;8.90;99.90;;;;;;4984446;28;20470;-77
2021/11/21 03:18:53;;;;;;;17.53;12.27;;;8.90;99.90;;;;;;4984056;28;20475;-80
2021/11/21 03:21:22;;;;;;;18.30;12.50;;;9.00;99.90;;;;;;4985547;28;20262;-78
2021/11/21 03:23:48;;;;;;;17.20;11.47;;;9.00;99.90;;;;;;4985143;28;20432;-83
2021/11/21 03:26:15;;;;;;;25.50;15.43;;;8.90;99.90;;;;;;4985133;28;20920;-80
2021/11/21 03:28:41;;;;;;;18.20;12.20;;;8.90;99.90;;;;;;4983874;28;20448;-76
2021/11/21 03:31:06;;;;;;;21.03;13.30;;;8.90;99.90;;;;;;4983363;28;20494;-76
2021/11/21 03:33:33;;;;;;;26.80;14.07;;;8.90;99.90;;;;;;4983652;28;21003;-77
2021/11/21 03:35:58;;;;;;;19.17;12.70;;;8.80;99.90;;;;;;4983988;28;20190;-76
2021/11/21 03:38:24;;;;;;;17.83;13.03;;;8.90;99.90;;;;;;4985655;28;20892;-76
2021/11/21 03:40:50;;;;;;;19.00;12.70;;;8.90;99.90;;;;;;4983311;28;20691;-76
2021/11/21 03:43:16;;;;;;;21.10;13.23;;;8.90;99.90;;;;;;4998941;28;20438;-76
2021/11/21 03:45:42;;;;;;;21.60;13.10;;;8.80;99.90;;;;;;4984084;28;20187;-76
2021/11/21 03:48:08;;;;;;;19.13;12.50;;;8.80;99.90;;;;;;4985328;28;20443;-76
2021/11/21 03:50:34;;;;;;;19.17;13.07;;;8.80;99.90;;;;;;4981177;28;21454;-76
2021/11/21 03:53:00;;;;;;;18.77;13.23;;;8.90;99.90;;;;;;4983889;28;20183;-76
2021/11/21 03:55:26;;;;;;;18.90;13.50;;;8.90;99.90;;;;;;4984150;28;20434;-76
2021/11/21 03:57:52;;;;;;;17.23;12.73;;;8.90;99.90;;;;;;4984701;28;20610;-76
2021/11/21 04:00:24;;;;;;;19.43;13.53;;;8.90;99.90;;;;;;4981594;28;20656;-76
2021/11/21 04:02:50;;;;;;;18.40;13.00;;;8.80;99.90;;;;;;4985058;28;20214;-76
2021/11/21 04:05:18;;;;;;;17.77;12.07;;;8.90;99.90;;;;;;4981047;28;20442;-76
2021/11/21 04:07:44;;;;;;;17.87;13.17;;;8.90;99.90;;;;;;4984058;28;20470;-76
2021/11/21 04:10:10;;;;;;;17.40;11.40;;;8.90;99.90;;;;;;4982527;28;20481;-84
2021/11/21 04:12:36;;;;;;;15.83;11.30;;;8.90;99.90;;;;;;4983250;28;20219;-78
2021/11/21 04:15:04;;;;;;;19.20;12.13;;;8.90;99.90;;;;;;4982135;28;20442;-77
2021/11/21 04:17:30;;;;;;;20.50;12.53;;;8.90;99.90;;;;;;4983686;28;20482;-77
2021/11/21 04:19:56;;;;;;;17.33;11.73;;;8.90;99.90;;;;;;4984222;28;21100;-77
2021/11/21 04:22:23;;;;;;;17.20;11.73;;;8.90;99.90;;;;;;4984656;28;20430;-77
2021/11/21 04:24:49;;;;;;;15.47;11.63;;;8.90;99.90;;;;;;4982518;28;20442;-77
2021/11/21 04:27:14;;;;;;;15.30;10.77;;;8.90;99.90;;;;;;4984465;28;20968;-77
2021/11/21 04:29:40;;;;;;;14.00;10.60;;;9.00;99.90;;;;;;4982823;28;20836;-76
2021/11/21 04:32:07;;;;;;;10.20;8.90;;;8.90;99.90;;;;;;4982692;28;20266;-75
2021/11/21 04:34:33;;;;;;;13.30;9.20;;;8.90;99.90;;;;;;4983435;28;20191;-76
2021/11/21 04:37:00;;;;;;;12.27;8.33;;;8.90;99.90;;;;;;4983154;28;20467;-75
2021/11/21 04:39:29;;;;;;;11.00;7.63;;;9.00;99.90;;;;;;4982925;28;20446;-77
2021/11/21 04:41:55;;;;;;;9.50;6.70;;;9.00;99.90;;;;;;4983784;28;21057;-77
2021/11/21 04:44:22;;;;;;;9.23;7.10;;;9.00;99.90;;;;;;4983278;28;20438;-76
2021/11/21 04:46:48;;;;;;;11.10;6.23;;;8.90;99.90;;;;;;4983192;28;20439;-76
2021/11/21 04:49:14;;;;;;;7.00;6.00;;;8.90;99.90;;;;;;4983379;28;20439;-76
2021/11/21 04:51:41;;;;;;;9.50;5.97;;;8.90;99.90;;;;;;4982974;28;20438;-76
2021/11/21 04:54:14;;;;;;;8.73;6.43;;;8.90;99.90;;;;;;4984821;28;20187;-76
2021/11/21 04:56:40;;;;;;;7.93;6.77;;;8.90;99.90;;;;;;4982310;28;20438;-77
2021/11/21 04:59:06;;;;;;;7.87;5.30;;;8.90;99.90;;;;;;4983256;28;20517;-76
2021/11/21 05:01:32;;;;;;;6.20;5.60;;;8.90;99.90;;;;;;4982804;28;20473;-77
2021/11/21 05:03:57;;;;;;;5.03;4.53;;;8.90;99.90;;;;;;4997695;28;20287;-77
2021/11/21 05:06:24;;;;;;;7.33;4.53;;;8.90;99.90;;;;;;4982703;28;20182;-76
2021/11/21 05:08:50;;;;;;;3.63;3.37;;;8.90;99.90;;;;;;4981899;28;20434;-76
2021/11/21 05:11:15;;;;;;;4.83;4.17;;;8.80;99.90;;;;;;4983419;28;20639;-77
2021/11/21 05:13:41;;;;;;;3.97;3.53;;;8.80;99.90;;;;;;4983924;28;20179;-77
2021/11/21 05:16:07;;;;;;;3.67;3.37;;;8.90;99.90;;;;;;4982610;28;20629;-76
2021/11/21 05:18:32;;;;;;;4.40;3.43;;;8.90;99.90;;;;;;4982127;28;20644;-77
2021/11/21 05:20:58;;;;;;;4.03;3.73;;;8.90;99.90;;;;;;4983027;28;20214;-76
2021/11/21 05:23:24;;;;;;;6.33;4.50;;;8.90;99.90;;;;;;4983411;28;20262;-77
2021/11/21 05:25:50;;;;;;;3.97;3.57;;;8.80;99.90;;;;;;4983625;28;20199;-77
2021/11/21 05:28:15;;;;;;;4.17;3.70;;;8.80;99.90;;;;;;4984680;28;20179;-77
2021/11/21 05:30:47;;;;;;;6.10;3.30;;;8.80;99.90;;;;;;4983718;28;20184;-77
2021/11/21 05:33:15;;;;;;;3.27;3.07;;;8.80;99.90;;;;;;4998195;28;20271;-76
2021/11/21 05:35:41;;;;;;;5.00;3.70;;;8.80;99.90;;;;;;4981777;28;20434;-77
2021/11/21 05:38:07;;;;;;;5.10;3.60;;;8.80;99.90;;;;;;4983167;28;20655;-77
2021/11/21 05:40:33;;;;;;;2.30;2.20;;;8.80;99.90;;;;;;4981520;28;20215;-76
2021/11/21 05:42:59;;;;;;;3.57;3.27;;;8.80;99.90;;;;;;4982772;28;20255;-77
2021/11/21 05:45:25;;;;;;;4.73;3.70;;;8.80;99.90;;;;;;4981642;28;20486;-76
2021/11/21 05:47:52;;;;;;;4.03;3.43;;;8.80;99.90;;;;;;4988225;28;20582;-76
2021/11/21 05:50:17;;;;;;;3.60;3.10;;;8.80;99.90;;;;;;4982022;28;20254;-76
2021/11/21 05:52:46;;;;;;;4.50;3.27;;;8.80;99.90;;;;;;4998342;28;20943;-76
2021/11/21 05:55:13;;;;;;;3.50;3.10;;;8.80;99.90;;;;;;4981443;28;20207;-76
2021/11/21 05:57:39;;;;;;;4.33;3.87;;;8.80;99.90;;;;;;4982655;28;20525;-76
2021/11/21 06:00:08;;;;;;;4.10;3.70;;;8.80;99.90;;;;;;4981767;28;20560;-76
2021/11/21 06:02:34;;;;;;;3.20;3.00;;;8.80;99.90;;;;;;4989197;28;20194;-76
2021/11/21 06:05:00;;;;;;;3.33;3.07;;;8.80;99.90;;;;;;4980756;28;20470;-77
2021/11/21 06:07:26;;;;;;;3.63;3.33;;;8.80;99.90;;;;;;4981921;28;20434;-77
2021/11/21 06:09:52;;;;;;;3.50;3.20;;;8.90;99.90;;;;;;4980171;28;20444;-76
2021/11/21 06:12:17;;;;;;;3.17;2.93;;;8.90;99.90;;;;;;4982680;28;20700;-77
2021/11/21 06:14:43;;;;;;;3.37;3.17;;;8.80;99.90;;;;;;4981040;28;20225;-77
2021/11/21 06:17:09;;;;;;;5.93;3.07;;;8.80;99.90;;;;;;4982558;28;20230;-77
2021/11/21 06:19:35;;;;;;;3.83;3.43;;;8.80;99.90;;;;;;4985507;28;20262;-77
2021/11/21 06:22:02;;;;;;;4.77;4.13;;;8.80;99.90;;;;;;4984467;28;21133;-77
2021/11/21 06:24:29;;;;;;;4.43;3.67;;;8.80;99.90;;;;;;4986394;28;20439;-77
2021/11/21 06:26:56;;;;;;;4.83;4.10;;;8.80;99.90;;;;;;4987472;28;20800;-76
2021/11/21 06:29:23;;;;;;;5.77;4.73;;;8.80;99.90;;;;;;4986954;28;20454;-76
2021/11/21 06:31:52;;;;;;;5.07;4.50;;;8.80;99.90;;;;;;4985737;28;20465;-76
2021/11/21 06:34:18;;;;;;;5.30;4.33;;;8.90;99.90;;;;;;4984838;28;20940;-77
2021/11/21 06:36:44;;;;;;;5.87;4.60;;;8.90;99.90;;;;;;4987282;28;20489;-77
2021/11/21 06:39:11;;;;;;;6.40;4.97;;;8.80;99.90;;;;;;4984793;28;20179;-76
2021/11/21 06:41:38;;;;;;;7.50;4.70;;;8.90;99.90;;;;;;4985943;28;20557;-77
2021/11/21 06:44:05;;;;;;;6.30;4.90;;;8.90;99.90;;;;;;4986024;28;20435;-76
2021/11/21 06:46:31;;;;;;;5.40;4.60;;;8.90;99.90;;;;;;4985563;28;20436;-77
2021/11/21 06:48:57;;;;;;;10.27;5.80;;;8.80;99.90;;;;;;4985611;28;20438;-76
2021/11/21 06:51:24;;;;;;;5.20;4.80;;;8.90;99.90;;;;;;4986395;28;20454;-76
2021/11/21 06:53:49;;;;;;;5.57;4.17;;;8.90;99.90;;;;;;4986270;28;20446;-77
2021/11/21 06:56:17;;;;;;;9.10;5.83;;;8.90;99.90;;;;;;4985994;28;20454;-77
2021/11/21 06:58:43;;;;;;;6.00;3.77;;;8.80;99.90;;;;;;4985368;28;20212;-76
2021/11/21 07:01:09;;;;;;;5.80;4.37;;;8.80;99.90;;;;;;4985406;28;20799;-77
2021/11/21 07:03:35;;;;;;;9.23;5.40;;;8.80;99.90;;;;;;4986240;28;20427;-76
2021/11/21 07:06:01;;;;;;;10.10;5.80;;;8.80;99.90;;;;;;4985696;28;20183;-77
2021/11/21 07:08:27;;;;;;;6.70;4.30;;;8.80;99.90;;;;;;4984091;28;20195;-74
2021/11/21 07:10:53;;;;;;;7.17;4.80;;;8.90;99.90;;;;;;4984025;28;20179;-76
2021/11/21 07:13:21;;;;;;;4.70;4.30;;;8.90;99.90;;;;;;4983290;28;20221;-77
2021/11/21 07:15:47;;;;;;;5.10;4.43;;;8.90;99.90;;;;;;4983662;28;20176;-70
2021/11/21 07:18:13;;;;;;;4.40;4.00;;;8.80;99.90;;;;;;4984360;28;20438;-70
2021/11/21 07:20:39;;;;;;;7.47;3.40;;;8.80;99.90;;;;;;4983809;28;20481;-70
2021/11/21 07:23:05;;;;;;;5.40;4.07;;;8.80;99.90;;;;;;4982974;28;20178;-70
2021/11/21 07:25:31;;;;;;;7.00;4.23;;;8.80;99.90;;;;;;4982019;28;20183;-70
2021/11/21 07:27:58;;;;;;;5.00;4.13;;;8.80;99.90;;;;;;4986965;28;20466;-70
2021/11/21 07:30:24;;;;;;;9.33;3.63;;;8.80;99.90;;;;;;4983527;28;20526;-70
2021/11/21 07:32:53;;;;;;;6.57;3.70;;;8.80;99.90;;;;;;4985993;28;20556;-70
2021/11/21 07:35:21;;;;;;;4.33;3.40;;;8.80;99.90;;;;;;4984386;28;20920;-69
2021/11/21 07:37:47;;;;;;;4.50;4.10;;;8.90;99.90;;;;;;4986248;28;20912;-70
2021/11/21 07:40:13;;;;;;;8.07;4.07;;;8.80;99.90;;;;;;4983174;28;20932;-70
2021/11/21 07:42:41;;;;;;;9.70;3.50;;;8.80;99.90;;;;;;4984590;28;20434;-71
2021/11/21 07:45:09;;;;;;;6.50;3.47;;;8.80;99.90;;;;;;4983593;28;20435;-70
2021/11/21 07:47:35;;;;;;;4.30;2.90;;;8.80;99.90;;;;;;4985976;28;20438;-70
2021/11/21 07:50:02;;;;;;;10.50;3.17;;;8.80;99.90;;;;;;4984375;28;20958;-70
2021/11/21 07:52:28;;;;;;;9.03;4.00;;;8.80;99.90;;;;;;4984633;28;20438;-70
2021/11/21 07:54:54;;;;;;;4.90;3.57;;;8.80;99.90;;;;;;4985789;28;20505;-70
2021/11/21 07:57:20;;;;;;;7.70;3.30;;;8.90;99.90;;;;;;4981849;28;20527;-70
2021/11/21 07:59:46;;;;;;;3.43;3.13;;;8.90;99.90;;;;;;4983606;28;20463;-70
2021/11/21 08:02:12;;;;;;;5.33;3.90;;;8.80;99.90;;;;;;4984996;28;20462;-69
2021/11/21 08:04:39;;;;;;;6.63;3.67;;;8.90;99.90;;;;;;4984045;28;20171;-69
2021/11/21 08:07:07;;;;;;;6.00;3.07;;;8.90;99.90;;;;;;4983436;28;20427;-71
2021/11/21 08:09:34;;;;;;;6.70;3.80;;;8.80;99.90;;;;;;4982823;28;20434;-71
2021/11/21 08:12:00;;;;;;;6.23;3.00;;;8.80;99.90;;;;;;4983066;28;20476;-70
2021/11/21 08:14:25;;;;;;;4.03;3.60;;;8.80;99.90;;;;;;4982637;28;20748;-69
2021/11/21 08:16:51;;;;;;;5.73;3.33;;;8.80;99.90;;;;;;4984239;28;20751;-69
2021/11/21 08:19:26;;;;;;;4.27;3.10;;;8.80;99.90;;;;;;4980969;28;20187;-77
2021/11/21 08:21:51;;;;;;;3.83;2.77;;;8.90;99.90;;;;;;4981102;28;20583;-69
2021/11/21 08:24:17;;;;;;;5.53;3.60;;;8.90;99.90;;;;;;4982723;28;20530;-70
2021/11/21 08:26:43;;;;;;;10.73;3.77;;;8.90;99.90;;;;;;4983562;28;20215;-70
2021/11/21 08:29:09;;;;;;;5.27;2.60;;;9.00;99.90;;;;;;4981703;28;20491;-70
2021/11/21 08:31:34;;;;;;;6.87;3.00;;;9.00;99.90;;;;;;4980564;28;20518;-70
2021/11/21 08:34:00;;;;;;;7.33;3.43;;;9.00;99.90;;;;;;4983403;28;20183;-69
2021/11/21 08:36:26;;;;;;;7.23;3.33;;;9.10;99.90;;;;;;4982173;28;20555;-69
2021/11/21 08:38:52;;;;;;;3.80;2.70;;;9.10;99.90;;;;;;4980846;28;20184;-70
2021/11/21 08:41:17;;;;;;;6.47;3.40;;;9.10;99.90;;;;;;4982025;28;20564;-70
2021/11/21 08:43:43;;;;;;;8.20;3.33;;;9.00;99.90;;;;;;4981036;28;20621;-69
2021/11/21 08:46:09;;;;;;;3.83;2.47;;;8.90;99.90;;;;;;4980585;28;20191;-69
2021/11/21 08:48:35;;;;;;;4.70;3.40;;;9.00;99.90;;;;;;4981473;28;20434;-69
2021/11/21 08:51:02;;;;;;;6.00;3.10;;;8.90;99.90;;;;;;4983195;28;20621;-69
2021/11/21 08:53:28;;;;;;;7.37;3.00;;;9.00;99.90;;;;;;4983978;28;20473;-70
2021/11/21 08:55:54;;;;;;;6.83;3.03;;;9.00;99.90;;;;;;4980991;28;20451;-69
2021/11/21 08:58:20;;;;;;;5.60;2.87;;;9.00;99.90;;;;;;4998232;28;20182;-70
2021/11/21 09:00:46;;;;;;;10.97;3.30;;;9.00;99.90;;;;;;4979064;28;20473;-69
2021/11/21 09:03:11;;;;;;;3.80;3.40;;;9.10;99.90;;;;;;4981485;28;20428;-70
2021/11/21 09:05:37;;;;;;;6.10;2.70;;;9.00;99.90;;;;;;4984025;28;20231;-69
2021/11/21 09:08:03;;;;;;;4.50;2.30;;;9.00;99.90;;;;;;4983410;28;20637;-69
2021/11/21 09:10:29;;;;;;;10.00;2.40;;;9.10;99.90;;;;;;4982661;28;20261;-69
2021/11/21 09:12:55;;;;;;;6.97;2.83;;;9.10;99.90;;;;;;4983613;28;20438;-70
2021/11/21 09:15:21;;;;;;;6.13;2.90;;;9.10;99.90;;;;;;4983396;28;20605;-77
2021/11/21 09:17:51;;;;;;;8.90;2.73;;;9.00;99.90;;;;;;4981529;28;20245;-77
2021/11/21 09:20:17;;;;;;;5.97;3.17;;;9.00;99.90;;;;;;4982885;28;20462;-77
2021/11/21 09:22:43;;;;;;;6.83;2.70;;;9.00;99.90;;;;;;4983576;28;20437;-77
2021/11/21 09:25:10;;;;;;;11.83;3.30;;;9.00;99.90;;;;;;4981849;28;20434;-77
2021/11/21 09:27:36;;;;;;;6.03;3.03;;;9.10;99.90;;;;;;4983223;28;20278;-77
2021/11/21 09:30:05;;;;;;;7.77;3.50;;;9.00;99.90;;;;;;4982798;28;20852;-77
2021/11/21 09:32:31;;;;;;;4.70;2.37;;;9.00;99.90;;;;;;4982109;28;20552;-78
2021/11/21 09:34:56;;;;;;;7.70;2.90;;;9.00;99.90;;;;;;4981741;28;20518;-78
2021/11/21 09:37:22;;;;;;;5.60;2.63;;;8.90;99.90;;;;;;4982664;28;20904;-77
2021/11/21 09:39:48;;;;;;;10.17;2.90;;;8.90;99.90;;;;;;4982073;28;20203;-77
2021/11/21 09:42:15;;;;;;;8.10;3.07;;;8.90;99.90;;;;;;4982941;28;20508;-77
2021/11/21 09:44:41;;;;;;;8.57;2.83;;;8.90;99.90;;;;;;5000356;28;20435;-77
2021/11/21 09:47:07;;;;;;;3.03;2.20;;;8.90;99.90;;;;;;4984533;28;20444;-77
2021/11/21 09:49:33;;;;;;;7.80;2.90;;;9.00;99.90;;;;;;4981669;28;20310;-77
2021/11/21 09:51:58;;;;;;;7.33;3.00;;;9.00;99.90;;;;;;4983368;28;20514;-76
2021/11/21 09:54:26;;;;;;;7.00;2.80;;;9.10;99.90;;;;;;4987279;28;20468;-77
2021/11/21 09:56:53;;;;;;;2.80;2.30;;;9.10;99.90;;;;;;4985900;28;20184;-78
2021/11/21 09:59:50;;;;;;;4.53;1.60;;;9.20;99.90;;;;;;4986066;28;20445;-77
2021/11/21 10:02:18;;;;;;;5.80;2.30;;;9.20;99.90;;;;;;4985461;28;20465;-76
2021/11/21 10:04:44;;;;;;;5.40;2.03;;;9.30;99.90;;;;;;4984033;28;20430;-76
2021/11/21 10:07:24;;;;;;;9.87;2.43;;;9.30;99.90;;;;;;4986449;28;21422;-76
2021/11/21 10:09:51;;;;;;;7.27;2.17;;;9.20;99.90;;;;;;4984513;28;20172;-74
2021/11/21 10:12:17;;;;;;;9.37;2.93;;;9.20;99.90;;;;;;4987166;28;20434;-74
2021/11/21 10:14:59;;;;;;;3.93;1.90;;;9.20;99.90;;;;;;4986295;28;20434;-74
2021/11/21 10:17:28;;;;;;;4.70;2.00;;;9.20;99.90;;;;;;4987076;28;20437;-73
2021/11/21 10:20:40;;;;;;;9.87;1.60;;;9.20;99.90;;;;;;4982113;28;20455;-73
2021/11/21 10:23:09;;;;;;;7.60;1.90;;;9.30;99.90;;;;;;4985560;28;20441;-74
2021/11/21 10:25:47;;;;;;;10.77;3.10;;;9.30;99.90;;;;;;4986675;28;20470;-74
2021/11/21 10:28:43;;;;;;;5.60;1.40;;;9.40;99.90;;;;;;4984600;28;20445;-75
2021/11/21 10:31:12;;;;;;;7.37;2.00;;;9.50;99.90;;;;;;4985513;28;20454;-74
2021/11/21 10:33:46;;;;;;;5.60;1.70;;;9.50;99.90;;;;;;5001823;28;20435;-74
2021/11/21 10:36:16;;;;;;;3.40;1.50;;;9.70;99.90;;;;;;4984345;28;20422;-74
2021/11/21 10:38:44;;;;;;;4.30;1.33;;;9.80;99.90;;;;;;4982406;28;20438;-74
2021/11/21 10:41:16;;;;;;;4.07;2.27;;;9.90;99.90;;;;;;4985234;28;20977;-74
2021/11/21 10:43:49;;;;;;;3.20;1.20;;;9.80;99.90;;;;;;5000487;28;20488;-75
2021/11/21 10:46:38;;;;;;;2.40;1.40;;;9.70;99.90;;;;;;4985448;28;20468;-76
2021/11/21 10:49:23;;;;;;;4.47;1.50;;;9.60;99.90;;;;;;4984514;28;20429;-76
2021/11/21 10:51:58;;;;;;;3.30;1.70;;;9.70;99.90;;;;;;4983604;28;20426;-76
2021/11/21 10:54:28;;;;;;;2.83;1.43;;;9.70;99.90;;;;;;4984477;28;20982;-76
2021/11/21 10:56:57;;;;;;;2.17;1.57;;;9.80;99.90;;;;;;4986482;28;20755;-76
2021/11/21 10:59:49;;;;;;;6.47;1.67;;;9.90;99.90;;;;;;5002258;28;20454;-76
2021/11/21 11:02:21;;;;;;;4.23;1.50;;;10.00;99.90;;;;;;4984460;28;20432;-77
2021/11/21 11:05:15;;;;;;;3.93;1.30;;;10.10;99.90;;;;;;4984441;28;20426;-77
2021/11/21 11:07:46;;;;;;;3.33;1.50;;;10.20;99.90;;;;;;4986520;28;20427;-77
2021/11/21 11:10:31;;;;;;;5.17;2.00;;;10.20;99.90;;;;;;4984273;28;20447;-75
2021/11/21 11:12:59;;;;;;;7.50;1.97;;;10.20;99.90;;;;;;4984671;28;20927;-77
2021/11/21 11:15:26;;;;;;;5.00;3.30;;;10.40;99.90;;;;;;4984432;28;20958;-77
2021/11/21 11:17:53;;;;;;;4.50;1.83;;;10.40;99.90;;;;;;4985070;28;20923;-77
2021/11/21 11:20:20;;;;;;;8.00;1.83;;;10.50;99.90;;;;;;4984240;28;20462;-77
2021/11/21 11:22:47;;;;;;;4.13;2.20;;;10.70;99.90;;;;;;4984392;28;20514;-78
2021/11/21 11:25:25;;;;;;;11.50;2.00;;;10.70;99.90;;;;;;4985477;28;20430;-78
2021/11/21 11:27:54;;;;;;;6.97;2.23;;;10.80;99.90;;;;;;4987072;28;20513;-78
2021/11/21 11:30:28;;;;;;;4.93;2.80;;;10.90;99.90;;;;;;4984455;28;20427;-78
2021/11/21 11:33:09;;;;;;;4.60;1.77;;;11.10;99.90;;;;;;4983622;28;20446;-78
2021/11/21 11:35:45;;;;;;;7.17;2.17;;;11.20;99.90;;;;;;4984249;28;20461;-78
2021/11/21 11:38:30;;;;;;;3.97;1.73;;;11.20;99.90;;;;;;4984252;28;20429;-78
2021/11/21 11:41:08;;;;;;;6.77;2.00;;;11.20;99.90;;;;;;4984446;28;20455;-78
2021/11/21 11:43:41;;;;;;;6.73;2.30;;;11.20;99.90;;;;;;4986131;28;20485;-78
2021/11/21 11:46:27;;;;;;;12.23;2.60;;;11.10;99.90;;;;;;4984175;28;20831;-75
2021/11/21 11:49:04;;;;;;;10.03;1.97;;;10.90;99.90;;;;;;4982686;28;20423;-75
2021/11/21 11:51:29;;;;;;;15.37;2.37;;;10.90;99.90;;;;;;4983637;28;20450;-75
2021/11/21 11:53:57;;;;;;;9.77;1.57;;;11.00;99.90;;;;;;4983965;28;20454;-74
2021/11/21 11:56:27;;;;;;;4.87;0.90;;;11.00;99.90;;;;;;4982234;28;20167;-74
2021/11/21 11:59:00;;;;;;;2.97;1.40;;;10.90;99.90;;;;;;4983327;28;20941;-74
2021/11/21 12:01:32;;;;;;;4.20;1.70;;;11.00;99.90;;;;;;4983695;28;20520;-74
2021/11/21 12:03:59;;;;;;;6.17;1.77;;;11.10;99.90;;;;;;4983620;28;20625;-74
2021/11/21 12:06:48;;;;;;;8.83;1.80;;;11.20;99.90;;;;;;4981158;28;20440;-75
2021/11/21 12:09:16;;;;;;;2.20;1.90;;;11.00;99.90;;;;;;4982335;28;20972;-78
2021/11/21 12:12:01;;;;;;;2.53;1.67;;;11.00;99.90;;;;;;4981051;28;20462;-78
2021/11/21 12:14:27;;;;;;;6.37;1.60;;;11.10;99.90;;;;;;4984695;28;20730;-73
2021/11/21 12:17:01;;;;;;;3.93;1.27;;;11.20;99.90;;;;;;4983593;28;20444;-74
2021/11/21 12:19:43;;;;;;;5.17;1.67;;;11.10;99.90;;;;;;4983487;28;20580;-74
2021/11/21 12:22:37;;;;;;;5.23;1.40;;;11.10;99.90;;;;;;4984032;28;20493;-75
2021/11/21 12:25:18;;;;;;;4.47;1.63;;;11.00;99.90;;;;;;4981616;28;21042;-74
2021/11/21 12:27:58;;;;;;;3.57;1.60;;;10.80;99.90;;;;;;4981629;28;20990;-73
2021/11/21 12:30:28;;;;;;;8.63;1.80;;;10.70;99.90;;;;;;4981952;28;20993;-74
2021/11/21 12:32:59;;;;;;;7.83;1.83;;;10.80;99.90;;;;;;4983069;28;20993;-73
2021/11/21 12:35:34;;;;;;;4.60;1.77;;;10.80;99.90;;;;;;4982260;28;20435;-74
2021/11/21 12:38:03;;;;;;;5.90;2.00;;;10.70;99.90;;;;;;4983684;28;20418;-73
2021/11/21 12:40:34;;;;;;;4.57;1.50;;;10.70;99.90;;;;;;4981893;28;20459;-74
2021/11/21 12:42:59;;;;;;;6.57;1.60;;;10.70;99.90;;;;;;4983683;28;20472;-76
2021/11/21 12:45:37;;;;;;;7.07;1.90;;;10.70;99.90;;;;;;4983086;28;20430;-74
2021/11/21 12:48:05;;;;;;;9.43;1.80;;;10.80;99.90;;;;;;4981511;28;20250;-74
2021/11/21 12:50:37;;;;;;;3.70;1.40;;;10.90;99.90;;;;;;4998245;28;20499;-74
2021/11/21 12:53:08;;;;;;;1.60;1.27;;;11.00;99.90;;;;;;4981789;28;20804;-75
2021/11/21 12:55:40;;;;;;;9.30;1.83;;;10.90;99.90;;;;;;4983856;28;20439;-75